Terminal Aerodrome Forecast
Issued by NWS

Home | Current Version | Previous Version | Text Only | Print | Product List | Glossary On
Versions: 1 2 3 4 5 6 7 8 9 10 11 12 13 14 15 16 17 18 19 20 21 22 23 24 25 26 27 28 29 30 31 32 33 34 35 36 37 38 39 40 41 42 43
000
FTUS45 KGJT 220404 AAC
TAFEGE
TAF AMD
KEGE 220404Z 2204/2224 25005KT 3SM -SN BR FEW006 OVC025
      TEMPO 2204/2206 2SM -SN BR SCT006 OVC012
     FM220600 26014G24KT 3SM -SN BR OVC010
     FM221200 26010G20KT 5SM -SN BR OVC015
      AMD LTD TO CLD VIS AND WIND 2206/2214=

USA.gov is the U.S. government's official web portal to all federal, state and local government web resources and services.